sensor_id;sensor_type;location;lat;lon;timestamp;P1;durP1;ratioP1;P2;durP2;ratioP2
64157;SDS011;50449;51.528;5.076;2023-10-09T00:01:42;199.40;;;190.68;;
64157;SDS011;50449;51.528;5.076;2023-10-09T00:04:12;202.27;;;193.55;;
64157;SDS011;50449;51.528;5.076;2023-10-09T00:06:39;206.88;;;197.60;;
64157;SDS011;50449;51.528;5.076;2023-10-09T00:09:07;208.35;;;199.27;;
64157;SDS011;50449;51.528;5.076;2023-10-09T00:11:48;201.38;;;192.63;;
64157;SDS011;50449;51.528;5.076;2023-10-09T00:14:19;201.40;;;192.73;;
64157;SDS011;50449;51.528;5.076;2023-10-09T00:16:44;199.10;;;190.43;;
64157;SDS011;50449;51.528;5.076;2023-10-09T00:19:21;199.73;;;190.68;;
64157;SDS011;50449;51.528;5.076;2023-10-09T00:21:58;206.07;;;196.80;;
64157;SDS011;50449;51.528;5.076;2023-10-09T00:24:29;200.82;;;191.98;;
64157;SDS011;50449;51.528;5.076;2023-10-09T00:26:56;203.10;;;194.13;;
64157;SDS011;50449;51.528;5.076;2023-10-09T00:29:36;202.10;;;192.70;;
64157;SDS011;50449;51.528;5.076;2023-10-09T00:32:07;199.02;;;190.45;;
64157;SDS011;50449;51.528;5.076;2023-10-09T00:34:39;200.60;;;191.90;;
64157;SDS011;50449;51.528;5.076;2023-10-09T00:37:08;200.68;;;191.68;;
64157;SDS011;50449;51.528;5.076;2023-10-09T00:40:03;203.25;;;194.05;;
64157;SDS011;50449;51.528;5.076;2023-10-09T00:42:37;200.40;;;191.43;;
64157;SDS011;50449;51.528;5.076;2023-10-09T00:45:04;202.88;;;193.35;;
64157;SDS011;50449;51.528;5.076;2023-10-09T00:47:33;194.23;;;185.45;;
64157;SDS011;50449;51.528;5.076;2023-10-09T00:50:00;196.43;;;187.88;;
64157;SDS011;50449;51.528;5.076;2023-10-09T00:52:40;198.85;;;190.05;;
64157;SDS011;50449;51.528;5.076;2023-10-09T00:55:14;192.95;;;184.48;;
64157;SDS011;50449;51.528;5.076;2023-10-09T00:57:52;194.57;;;185.82;;
64157;SDS011;50449;51.528;5.076;2023-10-09T01:00:25;195.77;;;186.68;;
64157;SDS011;50449;51.528;5.076;2023-10-09T01:03:11;199.77;;;190.68;;
64157;SDS011;50449;51.528;5.076;2023-10-09T01:05:51;201.52;;;192.43;;
64157;SDS011;50449;51.528;5.076;2023-10-09T01:08:40;198.30;;;189.15;;
64157;SDS011;50449;51.528;5.076;2023-10-09T01:11:05;201.75;;;192.20;;
64157;SDS011;50449;51.528;5.076;2023-10-09T01:13:38;198.40;;;189.90;;
64157;SDS011;50449;51.528;5.076;2023-10-09T01:16:21;196.90;;;188.15;;
64157;SDS011;50449;51.528;5.076;2023-10-09T01:18:49;198.98;;;189.70;;
64157;SDS011;50449;51.528;5.076;2023-10-09T01:21:16;196.13;;;187.27;;
64157;SDS011;50449;51.528;5.076;2023-10-09T01:23:45;194.48;;;185.95;;
64157;SDS011;50449;51.528;5.076;2023-10-09T01:26:37;195.90;;;187.02;;
64157;SDS011;50449;51.528;5.076;2023-10-09T01:29:18;194.88;;;186.40;;
64157;SDS011;50449;51.528;5.076;2023-10-09T01:31:48;198.90;;;190.30;;
64157;SDS011;50449;51.528;5.076;2023-10-09T01:34:29;198.32;;;189.52;;
64157;SDS011;50449;51.528;5.076;2023-10-09T01:37:15;197.43;;;189.00;;
64157;SDS011;50449;51.528;5.076;2023-10-09T01:39:48;201.27;;;192.60;;
64157;SDS011;50449;51.528;5.076;2023-10-09T01:42:15;191.73;;;183.27;;
64157;SDS011;50449;51.528;5.076;2023-10-09T01:44:50;194.70;;;185.90;;
64157;SDS011;50449;51.528;5.076;2023-10-09T01:47:16;195.43;;;186.77;;
64157;SDS011;50449;51.528;5.076;2023-10-09T01:49:44;196.63;;;187.98;;
64157;SDS011;50449;51.528;5.076;2023-10-09T01:52:11;197.93;;;188.68;;
64157;SDS011;50449;51.528;5.076;2023-10-09T01:54:40;194.45;;;186.15;;
64157;SDS011;50449;51.528;5.076;2023-10-09T01:57:09;200.00;;;190.85;;
64157;SDS011;50449;51.528;5.076;2023-10-09T01:59:37;193.73;;;185.40;;
64157;SDS011;50449;51.528;5.076;2023-10-09T02:02:09;190.60;;;182.00;;
64157;SDS011;50449;51.528;5.076;2023-10-09T02:04:55;190.43;;;182.27;;
64157;SDS011;50449;51.528;5.076;2023-10-09T02:07:46;190.77;;;182.48;;
64157;SDS011;50449;51.528;5.076;2023-10-09T02:10:18;195.68;;;186.68;;
64157;SDS011;50449;51.528;5.076;2023-10-09T02:12:50;189.30;;;181.15;;
64157;SDS011;50449;51.528;5.076;2023-10-09T02:15:27;194.68;;;185.98;;
64157;SDS011;50449;51.528;5.076;2023-10-09T02:18:05;191.20;;;182.80;;
64157;SDS011;50449;51.528;5.076;2023-10-09T02:20:42;193.10;;;183.95;;
64157;SDS011;50449;51.528;5.076;2023-10-09T02:23:10;190.15;;;181.85;;
64157;SDS011;50449;51.528;5.076;2023-10-09T02:25:38;189.98;;;181.77;;
64157;SDS011;50449;51.528;5.076;2023-10-09T02:28:08;190.27;;;182.07;;
64157;SDS011;50449;51.528;5.076;2023-10-09T02:30:34;189.40;;;180.95;;
64157;SDS011;50449;51.528;5.076;2023-10-09T02:32:59;187.90;;;179.63;;
64157;SDS011;50449;51.528;5.076;2023-10-09T02:35:34;189.52;;;180.77;;
64157;SDS011;50449;51.528;5.076;2023-10-09T02:38:04;188.43;;;180.13;;
64157;SDS011;50449;51.528;5.076;2023-10-09T02:40:32;189.95;;;180.95;;
64157;SDS011;50449;51.528;5.076;2023-10-09T02:43:06;188.20;;;179.90;;
64157;SDS011;50449;51.528;5.076;2023-10-09T02:45:37;198.45;;;190.02;;
64157;SDS011;50449;51.528;5.076;2023-10-09T02:48:15;188.75;;;179.80;;
64157;SDS011;50449;51.528;5.076;2023-10-09T02:50:50;187.95;;;179.95;;
64157;SDS011;50449;51.528;5.076;2023-10-09T02:53:15;193.55;;;184.55;;
64157;SDS011;50449;51.528;5.076;2023-10-09T02:55:45;194.02;;;185.10;;
64157;SDS011;50449;51.528;5.076;2023-10-09T02:58:29;188.90;;;180.75;;
64157;SDS011;50449;51.528;5.076;2023-10-09T03:00:57;193.00;;;184.43;;
64157;SDS011;50449;51.528;5.076;2023-10-09T03:03:23;193.27;;;184.90;;
64157;SDS011;50449;51.528;5.076;2023-10-09T03:05:50;189.98;;;181.95;;
64157;SDS011;50449;51.528;5.076;2023-10-09T03:08:15;189.55;;;181.32;;
64157;SDS011;50449;51.528;5.076;2023-10-09T03:10:44;184.18;;;175.60;;
64157;SDS011;50449;51.528;5.076;2023-10-09T03:13:10;186.63;;;178.68;;
64157;SDS011;50449;51.528;5.076;2023-10-09T03:15:35;183.75;;;175.73;;
64157;SDS011;50449;51.528;5.076;2023-10-09T03:18:01;185.90;;;177.43;;
64157;SDS011;50449;51.528;5.076;2023-10-09T03:22:55;178.27;;;170.13;;
64157;SDS011;50449;51.528;5.076;2023-10-09T03:25:21;181.10;;;173.45;;
64157;SDS011;50449;51.528;5.076;2023-10-09T03:27:49;186.20;;;177.90;;
64157;SDS011;50449;51.528;5.076;2023-10-09T03:30:16;181.93;;;173.63;;
64157;SDS011;50449;51.528;5.076;2023-10-09T03:32:47;184.43;;;175.98;;
64157;SDS011;50449;51.528;5.076;2023-10-09T03:37:49;174.93;;;167.05;;
64157;SDS011;50449;51.528;5.076;2023-10-09T03:40:14;174.90;;;167.25;;
64157;SDS011;50449;51.528;5.076;2023-10-09T03:42:42;185.38;;;177.23;;
64157;SDS011;50449;51.528;5.076;2023-10-09T03:45:08;183.63;;;174.82;;
64157;SDS011;50449;51.528;5.076;2023-10-09T03:47:52;189.05;;;180.68;;
64157;SDS011;50449;51.528;5.076;2023-10-09T03:50:41;181.07;;;173.13;;
64157;SDS011;50449;51.528;5.076;2023-10-09T03:53:08;186.50;;;178.23;;
64157;SDS011;50449;51.528;5.076;2023-10-09T03:55:37;182.70;;;174.30;;
64157;SDS011;50449;51.528;5.076;2023-10-09T04:00:37;178.48;;;170.73;;
64157;SDS011;50449;51.528;5.076;2023-10-09T04:03:14;176.35;;;168.07;;
64157;SDS011;50449;51.528;5.076;2023-10-09T04:05:40;178.63;;;170.68;;
64157;SDS011;50449;51.528;5.076;2023-10-09T04:08:08;182.68;;;174.85;;
64157;SDS011;50449;51.528;5.076;2023-10-09T04:10:38;185.18;;;176.57;;
64157;SDS011;50449;51.528;5.076;2023-10-09T04:13:16;183.70;;;175.80;;
64157;SDS011;50449;51.528;5.076;2023-10-09T04:15:51;184.43;;;175.95;;
64157;SDS011;50449;51.528;5.076;2023-10-09T04:18:19;182.32;;;174.20;;
64157;SDS011;50449;51.528;5.076;2023-10-09T04:20:53;181.32;;;173.27;;
64157;SDS011;50449;51.528;5.076;2023-10-09T04:23:43;185.55;;;177.45;;
64157;SDS011;50449;51.528;5.076;2023-10-09T04:26:25;186.15;;;177.85;;
64157;SDS011;50449;51.528;5.076;2023-10-09T04:28:51;188.48;;;179.65;;
64157;SDS011;50449;51.528;5.076;2023-10-09T04:31:18;190.20;;;181.27;;
64157;SDS011;50449;51.528;5.076;2023-10-09T04:33:56;182.43;;;174.35;;
64157;SDS011;50449;51.528;5.076;2023-10-09T04:36:51;182.35;;;173.88;;
64157;SDS011;50449;51.528;5.076;2023-10-09T04:39:21;182.18;;;173.77;;
64157;SDS011;50449;51.528;5.076;2023-10-09T04:41:56;179.40;;;171.45;;
64157;SDS011;50449;51.528;5.076;2023-10-09T04:44:46;180.77;;;171.90;;
64157;SDS011;50449;51.528;5.076;2023-10-09T04:47:27;183.20;;;175.20;;
64157;SDS011;50449;51.528;5.076;2023-10-09T04:50:03;184.75;;;176.65;;
64157;SDS011;50449;51.528;5.076;2023-10-09T04:52:40;180.10;;;171.88;;
64157;SDS011;50449;51.528;5.076;2023-10-09T04:55:06;182.35;;;174.20;;
64157;SDS011;50449;51.528;5.076;2023-10-09T04:57:39;185.10;;;176.68;;
64157;SDS011;50449;51.528;5.076;2023-10-09T05:00:06;181.50;;;173.35;;
64157;SDS011;50449;51.528;5.076;2023-10-09T05:02:51;185.07;;;176.35;;
64157;SDS011;50449;51.528;5.076;2023-10-09T05:05:21;184.48;;;176.38;;
64157;SDS011;50449;51.528;5.076;2023-10-09T05:08:02;184.35;;;175.43;;
64157;SDS011;50449;51.528;5.076;2023-10-09T05:10:44;181.35;;;173.25;;
64157;SDS011;50449;51.528;5.076;2023-10-09T05:16:05;170.40;;;162.27;;
64157;SDS011;50449;51.528;5.076;2023-10-09T05:18:38;175.63;;;167.43;;
64157;SDS011;50449;51.528;5.076;2023-10-09T05:21:04;179.57;;;171.57;;
64157;SDS011;50449;51.528;5.076;2023-10-09T05:23:49;177.38;;;169.45;;
64157;SDS011;50449;51.528;5.076;2023-10-09T05:26:34;180.63;;;172.50;;
64157;SDS011;50449;51.528;5.076;2023-10-09T05:29:25;179.95;;;171.65;;
64157;SDS011;50449;51.528;5.076;2023-10-09T05:31:57;182.25;;;174.00;;
64157;SDS011;50449;51.528;5.076;2023-10-09T05:34:28;179.77;;;171.90;;
64157;SDS011;50449;51.528;5.076;2023-10-09T05:37:13;182.60;;;174.20;;
64157;SDS011;50449;51.528;5.076;2023-10-09T05:39:46;180.00;;;172.23;;
64157;SDS011;50449;51.528;5.076;2023-10-09T05:42:26;184.95;;;176.73;;
64157;SDS011;50449;51.528;5.076;2023-10-09T05:45:05;181.90;;;173.73;;
64157;SDS011;50449;51.528;5.076;2023-10-09T05:50:21;181.80;;;173.55;;
64157;SDS011;50449;51.528;5.076;2023-10-09T05:52:57;179.95;;;171.65;;
64157;SDS011;50449;51.528;5.076;2023-10-09T05:55:32;177.55;;;169.35;;
64157;SDS011;50449;51.528;5.076;2023-10-09T05:58:16;180.90;;;172.30;;
64157;SDS011;50449;51.528;5.076;2023-10-09T06:01:00;182.85;;;174.15;;
64157;SDS011;50449;51.528;5.076;2023-10-09T06:03:44;181.93;;;173.65;;
64157;SDS011;50449;51.528;5.076;2023-10-09T06:06:28;178.80;;;170.95;;
64157;SDS011;50449;51.528;5.076;2023-10-09T06:09:08;182.85;;;174.32;;
64157;SDS011;50449;51.528;5.076;2023-10-09T06:11:43;183.10;;;174.88;;
64157;SDS011;50449;51.528;5.076;2023-10-09T06:14:14;185.10;;;176.18;;
64157;SDS011;50449;51.528;5.076;2023-10-09T06:16:50;185.32;;;176.85;;
64157;SDS011;50449;51.528;5.076;2023-10-09T06:19:22;185.77;;;176.95;;
64157;SDS011;50449;51.528;5.076;2023-10-09T06:21:48;182.95;;;174.93;;
64157;SDS011;50449;51.528;5.076;2023-10-09T06:24:32;180.32;;;172.50;;
64157;SDS011;50449;51.528;5.076;2023-10-09T06:27:15;180.60;;;172.63;;
64157;SDS011;50449;51.528;5.076;2023-10-09T06:30:01;184.55;;;175.93;;
64157;SDS011;50449;51.528;5.076;2023-10-09T06:32:55;185.18;;;176.77;;
64157;SDS011;50449;51.528;5.076;2023-10-09T06:35:33;188.48;;;180.38;;
64157;SDS011;50449;51.528;5.076;2023-10-09T06:38:00;182.65;;;174.50;;
64157;SDS011;50449;51.528;5.076;2023-10-09T06:40:29;182.77;;;174.55;;
64157;SDS011;50449;51.528;5.076;2023-10-09T06:43:01;184.38;;;175.98;;
64157;SDS011;50449;51.528;5.076;2023-10-09T06:45:34;181.77;;;173.65;;
64157;SDS011;50449;51.528;5.076;2023-10-09T06:48:09;183.52;;;174.77;;
64157;SDS011;50449;51.528;5.076;2023-10-09T06:50:56;183.10;;;175.10;;
64157;SDS011;50449;51.528;5.076;2023-10-09T06:53:43;186.32;;;177.57;;
64157;SDS011;50449;51.528;5.076;2023-10-09T06:56:27;187.00;;;177.25;;
64157;SDS011;50449;51.528;5.076;2023-10-09T06:58:54;185.73;;;177.18;;
64157;SDS011;50449;51.528;5.076;2023-10-09T07:01:20;188.82;;;179.95;;
64157;SDS011;50449;51.528;5.076;2023-10-09T07:04:07;183.75;;;174.85;;
64157;SDS011;50449;51.528;5.076;2023-10-09T07:06:46;183.40;;;175.30;;
64157;SDS011;50449;51.528;5.076;2023-10-09T07:09:12;186.40;;;177.05;;
64157;SDS011;50449;51.528;5.076;2023-10-09T07:11:39;182.88;;;174.35;;
64157;SDS011;50449;51.528;5.076;2023-10-09T07:14:12;181.18;;;172.77;;
64157;SDS011;50449;51.528;5.076;2023-10-09T07:20:09;180.00;;;170.90;;
64157;SDS011;50449;51.528;5.076;2023-10-09T07:22:39;183.55;;;174.77;;
64157;SDS011;50449;51.528;5.076;2023-10-09T07:28:01;177.43;;;169.00;;
64157;SDS011;50449;51.528;5.076;2023-10-09T07:30:28;178.95;;;170.10;;
64157;SDS011;50449;51.528;5.076;2023-10-09T07:33:03;186.07;;;177.43;;
64157;SDS011;50449;51.528;5.076;2023-10-09T07:35:39;180.60;;;172.10;;
64157;SDS011;50449;51.528;5.076;2023-10-09T07:38:09;183.43;;;174.65;;
64157;SDS011;50449;51.528;5.076;2023-10-09T07:40:40;184.98;;;176.73;;
64157;SDS011;50449;51.528;5.076;2023-10-09T07:43:58;185.25;;;176.48;;
64157;SDS011;50449;51.528;5.076;2023-10-09T07:46:19;182.90;;;174.35;;
64157;SDS011;50449;51.528;5.076;2023-10-09T07:49:17;181.43;;;172.80;;
64157;SDS011;50449;51.528;5.076;2023-10-09T07:51:50;183.43;;;174.80;;
64157;SDS011;50449;51.528;5.076;2023-10-09T07:54:17;188.73;;;179.00;;
64157;SDS011;50449;51.528;5.076;2023-10-09T07:56:57;178.32;;;169.90;;
64157;SDS011;50449;51.528;5.076;2023-10-09T07:59:34;182.38;;;173.35;;
64157;SDS011;50449;51.528;5.076;2023-10-09T08:02:06;184.95;;;176.35;;
64157;SDS011;50449;51.528;5.076;2023-10-09T08:04:38;187.10;;;178.63;;
64157;SDS011;50449;51.528;5.076;2023-10-09T08:09:34;188.75;;;179.85;;
64157;SDS011;50449;51.528;5.076;2023-10-09T08:12:36;181.98;;;173.25;;
64157;SDS011;50449;51.528;5.076;2023-10-09T08:15:12;185.32;;;176.07;;
64157;SDS011;50449;51.528;5.076;2023-10-09T08:17:53;180.93;;;172.63;;
64157;SDS011;50449;51.528;5.076;2023-10-09T08:20:24;180.68;;;172.45;;
64157;SDS011;50449;51.528;5.076;2023-10-09T08:22:53;187.40;;;177.90;;
64157;SDS011;50449;51.528;5.076;2023-10-09T08:25:22;188.15;;;179.55;;
64157;SDS011;50449;51.528;5.076;2023-10-09T08:28:00;187.75;;;178.65;;
64157;SDS011;50449;51.528;5.076;2023-10-09T08:30:39;183.68;;;174.13;;
64157;SDS011;50449;51.528;5.076;2023-10-09T08:33:20;189.88;;;180.95;;
64157;SDS011;50449;51.528;5.076;2023-10-09T08:35:54;185.60;;;176.50;;
64157;SDS011;50449;51.528;5.076;2023-10-09T08:38:26;173.45;;;165.85;;
64157;SDS011;50449;51.528;5.076;2023-10-09T08:40:58;184.48;;;175.88;;
64157;SDS011;50449;51.528;5.076;2023-10-09T08:43:39;178.25;;;169.90;;
64157;SDS011;50449;51.528;5.076;2023-10-09T08:46:12;183.45;;;174.40;;
64157;SDS011;50449;51.528;5.076;2023-10-09T08:48:43;181.80;;;173.43;;
64157;SDS011;50449;51.528;5.076;2023-10-09T08:51:10;188.20;;;179.27;;
64157;SDS011;50449;51.528;5.076;2023-10-09T08:53:35;184.70;;;175.43;;
64157;SDS011;50449;51.528;5.076;2023-10-09T08:56:09;185.82;;;175.98;;
64157;SDS011;50449;51.528;5.076;2023-10-09T08:58:35;196.47;;;187.03;;
64157;SDS011;50449;51.528;5.076;2023-10-09T09:01:05;188.05;;;178.95;;
64157;SDS011;50449;51.528;5.076;2023-10-09T09:03:41;188.02;;;179.20;;
64157;SDS011;50449;51.528;5.076;2023-10-09T09:06:10;188.25;;;178.88;;
64157;SDS011;50449;51.528;5.076;2023-10-09T09:08:38;186.80;;;177.25;;
64157;SDS011;50449;51.528;5.076;2023-10-09T09:11:10;187.07;;;177.38;;
64157;SDS011;50449;51.528;5.076;2023-10-09T09:13:45;183.57;;;175.07;;
64157;SDS011;50449;51.528;5.076;2023-10-09T09:16:21;186.25;;;177.07;;
64157;SDS011;50449;51.528;5.076;2023-10-09T09:21:48;194.38;;;183.55;;
64157;SDS011;50449;51.528;5.076;2023-10-09T09:24:14;193.38;;;183.30;;
64157;SDS011;50449;51.528;5.076;2023-10-09T09:26:52;190.85;;;181.75;;
64157;SDS011;50449;51.528;5.076;2023-10-09T09:32:03;193.82;;;184.05;;
64157;SDS011;50449;51.528;5.076;2023-10-09T09:34:51;187.15;;;178.32;;
64157;SDS011;50449;51.528;5.076;2023-10-09T09:37:20;191.68;;;181.93;;
64157;SDS011;50449;51.528;5.076;2023-10-09T09:39:49;186.40;;;177.32;;
64157;SDS011;50449;51.528;5.076;2023-10-09T09:42:17;192.25;;;181.95;;
64157;SDS011;50449;51.528;5.076;2023-10-09T09:44:49;191.27;;;181.60;;
64157;SDS011;50449;51.528;5.076;2023-10-09T09:47:16;193.60;;;183.63;;
64157;SDS011;50449;51.528;5.076;2023-10-09T09:49:55;193.48;;;183.90;;
64157;SDS011;50449;51.528;5.076;2023-10-09T09:52:37;191.40;;;181.38;;
64157;SDS011;50449;51.528;5.076;2023-10-09T09:55:06;188.80;;;179.50;;
64157;SDS011;50449;51.528;5.076;2023-10-09T09:57:47;191.00;;;182.00;;
64157;SDS011;50449;51.528;5.076;2023-10-09T10:00:16;193.63;;;184.27;;
64157;SDS011;50449;51.528;5.076;2023-10-09T10:03:09;190.98;;;181.77;;
64157;SDS011;50449;51.528;5.076;2023-10-09T10:05:38;197.70;;;188.20;;
64157;SDS011;50449;51.528;5.076;2023-10-09T10:08:07;187.27;;;178.43;;
64157;SDS011;50449;51.528;5.076;2023-10-09T10:10:38;195.27;;;185.65;;
64157;SDS011;50449;51.528;5.076;2023-10-09T10:13:13;194.27;;;184.60;;
64157;SDS011;50449;51.528;5.076;2023-10-09T10:18:30;195.55;;;186.27;;
64157;SDS011;50449;51.528;5.076;2023-10-09T10:21:12;202.18;;;192.48;;
64157;SDS011;50449;51.528;5.076;2023-10-09T10:23:42;197.82;;;188.30;;
64157;SDS011;50449;51.528;5.076;2023-10-09T10:26:19;195.00;;;185.25;;
64157;SDS011;50449;51.528;5.076;2023-10-09T10:32:01;196.93;;;186.73;;
64157;SDS011;50449;51.528;5.076;2023-10-09T10:34:56;201.68;;;192.38;;
64157;SDS011;50449;51.528;5.076;2023-10-09T10:37:36;199.15;;;189.77;;
64157;SDS011;50449;51.528;5.076;2023-10-09T10:40:08;198.20;;;189.30;;
64157;SDS011;50449;51.528;5.076;2023-10-09T10:42:47;200.60;;;190.52;;
64157;SDS011;50449;51.528;5.076;2023-10-09T10:45:34;201.63;;;191.23;;
64157;SDS011;50449;51.528;5.076;2023-10-09T10:48:00;194.25;;;185.80;;
64157;SDS011;50449;51.528;5.076;2023-10-09T10:50:32;198.63;;;189.32;;
64157;SDS011;50449;51.528;5.076;2023-10-09T10:53:12;204.88;;;195.20;;
64157;SDS011;50449;51.528;5.076;2023-10-09T10:55:39;202.13;;;192.73;;
64157;SDS011;50449;51.528;5.076;2023-10-09T10:58:21;200.00;;;190.50;;
64157;SDS011;50449;51.528;5.076;2023-10-09T11:03:21;196.90;;;186.60;;
64157;SDS011;50449;51.528;5.076;2023-10-09T11:06:29;196.60;;;187.07;;
64157;SDS011;50449;51.528;5.076;2023-10-09T11:09:06;202.68;;;193.20;;
64157;SDS011;50449;51.528;5.076;2023-10-09T11:11:51;204.57;;;194.57;;
64157;SDS011;50449;51.528;5.076;2023-10-09T11:17:14;198.20;;;188.90;;
64157;SDS011;50449;51.528;5.076;2023-10-09T11:19:50;202.48;;;192.88;;
64157;SDS011;50449;51.528;5.076;2023-10-09T11:22:17;201.60;;;192.75;;
64157;SDS011;50449;51.528;5.076;2023-10-09T11:25:01;200.68;;;191.82;;
64157;SDS011;50449;51.528;5.076;2023-10-09T11:27:36;203.85;;;194.95;;
64157;SDS011;50449;51.528;5.076;2023-10-09T11:30:05;205.32;;;196.18;;
64157;SDS011;50449;51.528;5.076;2023-10-09T11:32:50;202.20;;;193.02;;
64157;SDS011;50449;51.528;5.076;2023-10-09T11:35:16;203.75;;;195.00;;
64157;SDS011;50449;51.528;5.076;2023-10-09T11:37:57;201.57;;;193.07;;
64157;SDS011;50449;51.528;5.076;2023-10-09T11:43:16;199.55;;;190.95;;
64157;SDS011;50449;51.528;5.076;2023-10-09T11:45:41;198.18;;;189.98;;
64157;SDS011;50449;51.528;5.076;2023-10-09T11:48:19;200.03;;;191.27;;
64157;SDS011;50449;51.528;5.076;2023-10-09T11:51:14;203.35;;;195.10;;
64157;SDS011;50449;51.528;5.076;2023-10-09T11:53:46;206.27;;;197.65;;
64157;SDS011;50449;51.528;5.076;2023-10-09T11:56:15;207.77;;;198.38;;
64157;SDS011;50449;51.528;5.076;2023-10-09T11:58:46;203.35;;;194.57;;
64157;SDS011;50449;51.528;5.076;2023-10-09T12:01:14;206.65;;;198.40;;
64157;SDS011;50449;51.528;5.076;2023-10-09T12:03:45;208.30;;;199.80;;
64157;SDS011;50449;51.528;5.076;2023-10-09T12:06:19;211.60;;;202.52;;
64157;SDS011;50449;51.528;5.076;2023-10-09T12:08:47;209.48;;;200.75;;
64157;SDS011;50449;51.528;5.076;2023-10-09T12:11:13;215.63;;;205.93;;
64157;SDS011;50449;51.528;5.076;2023-10-09T12:13:47;212.45;;;203.43;;
64157;SDS011;50449;51.528;5.076;2023-10-09T12:16:12;213.60;;;204.20;;
64157;SDS011;50449;51.528;5.076;2023-10-09T12:18:40;216.88;;;206.90;;
64157;SDS011;50449;51.528;5.076;2023-10-09T12:21:07;213.18;;;204.43;;
64157;SDS011;50449;51.528;5.076;2023-10-09T12:23:33;218.82;;;208.95;;
64157;SDS011;50449;51.528;5.076;2023-10-09T12:26:02;222.00;;;212.73;;
64157;SDS011;50449;51.528;5.076;2023-10-09T12:28:28;216.40;;;207.10;;
64157;SDS011;50449;51.528;5.076;2023-10-09T12:30:55;223.65;;;213.68;;
64157;SDS011;50449;51.528;5.076;2023-10-09T12:33:26;219.93;;;210.13;;
64157;SDS011;50449;51.528;5.076;2023-10-09T12:35:53;217.88;;;208.73;;
64157;SDS011;50449;51.528;5.076;2023-10-09T12:38:25;219.32;;;210.10;;
64157;SDS011;50449;51.528;5.076;2023-10-09T12:43:47;217.77;;;208.48;;
64157;SDS011;50449;51.528;5.076;2023-10-09T12:46:13;223.10;;;213.35;;
64157;SDS011;50449;51.528;5.076;2023-10-09T12:48:42;223.93;;;214.02;;
64157;SDS011;50449;51.528;5.076;2023-10-09T12:51:11;226.85;;;217.75;;
64157;SDS011;50449;51.528;5.076;2023-10-09T12:53:43;218.52;;;209.50;;
64157;SDS011;50449;51.528;5.076;2023-10-09T12:56:10;227.05;;;216.32;;
64157;SDS011;50449;51.528;5.076;2023-10-09T12:58:40;224.40;;;215.13;;
64157;SDS011;50449;51.528;5.076;2023-10-09T13:01:17;225.77;;;216.13;;
64157;SDS011;50449;51.528;5.076;2023-10-09T13:03:44;227.60;;;217.73;;
64157;SDS011;50449;51.528;5.076;2023-10-09T13:06:14;225.35;;;215.73;;
64157;SDS011;50449;51.528;5.076;2023-10-09T13:08:40;228.90;;;219.10;;
64157;SDS011;50449;51.528;5.076;2023-10-09T13:11:10;231.27;;;220.75;;
64157;SDS011;50449;51.528;5.076;2023-10-09T13:13:36;229.13;;;219.18;;
64157;SDS011;50449;51.528;5.076;2023-10-09T13:16:12;231.48;;;221.35;;
64157;SDS011;50449;51.528;5.076;2023-10-09T13:21:19;220.15;;;210.75;;
64157;SDS011;50449;51.528;5.076;2023-10-09T13:23:48;226.95;;;217.00;;
64157;SDS011;50449;51.528;5.076;2023-10-09T13:26:19;229.77;;;219.88;;
64157;SDS011;50449;51.528;5.076;2023-10-09T13:28:53;237.80;;;227.13;;
64157;SDS011;50449;51.528;5.076;2023-10-09T13:31:20;233.73;;;223.52;;
64157;SDS011;50449;51.528;5.076;2023-10-09T13:33:48;230.90;;;220.95;;
64157;SDS011;50449;51.528;5.076;2023-10-09T13:36:13;235.68;;;226.25;;
64157;SDS011;50449;51.528;5.076;2023-10-09T13:38:47;228.90;;;219.45;;
64157;SDS011;50449;51.528;5.076;2023-10-09T13:41:13;234.10;;;224.57;;
64157;SDS011;50449;51.528;5.076;2023-10-09T13:43:39;238.25;;;227.85;;
64157;SDS011;50449;51.528;5.076;2023-10-09T13:46:11;231.07;;;221.32;;
64157;SDS011;50449;51.528;5.076;2023-10-09T13:48:40;236.05;;;226.20;;
64157;SDS011;50449;51.528;5.076;2023-10-09T13:51:11;245.63;;;234.52;;
64157;SDS011;50449;51.528;5.076;2023-10-09T13:53:46;234.50;;;224.80;;
64157;SDS011;50449;51.528;5.076;2023-10-09T13:58:49;231.70;;;221.88;;
64157;SDS011;50449;51.528;5.076;2023-10-09T14:01:16;234.10;;;224.60;;
64157;SDS011;50449;51.528;5.076;2023-10-09T14:03:58;234.15;;;224.60;;
64157;SDS011;50449;51.528;5.076;2023-10-09T14:06:25;237.20;;;227.75;;
64157;SDS011;50449;51.528;5.076;2023-10-09T14:09:04;238.10;;;228.30;;
64157;SDS011;50449;51.528;5.076;2023-10-09T14:11:33;243.98;;;233.85;;
64157;SDS011;50449;51.528;5.076;2023-10-09T14:14:03;241.45;;;231.57;;
64157;SDS011;50449;51.528;5.076;2023-10-09T14:16:37;245.52;;;235.75;;
64157;SDS011;50449;51.528;5.076;2023-10-09T14:19:07;236.85;;;227.30;;
64157;SDS011;50449;51.528;5.076;2023-10-09T14:21:37;237.93;;;228.00;;
64157;SDS011;50449;51.528;5.076;2023-10-09T14:24:05;242.68;;;232.80;;
64157;SDS011;50449;51.528;5.076;2023-10-09T14:26:44;242.20;;;232.52;;
64157;SDS011;50449;51.528;5.076;2023-10-09T14:29:11;245.60;;;235.40;;
64157;SDS011;50449;51.528;5.076;2023-10-09T14:31:42;244.27;;;234.38;;
64157;SDS011;50449;51.528;5.076;2023-10-09T14:34:08;240.02;;;230.18;;
64157;SDS011;50449;51.528;5.076;2023-10-09T14:36:34;241.18;;;231.43;;
64157;SDS011;50449;51.528;5.076;2023-10-09T14:39:00;246.95;;;236.25;;
64157;SDS011;50449;51.528;5.076;2023-10-09T14:41:27;248.63;;;238.23;;
64157;SDS011;50449;51.528;5.076;2023-10-09T14:43:53;249.45;;;239.05;;
64157;SDS011;50449;51.528;5.076;2023-10-09T14:46:19;249.05;;;238.35;;
64157;SDS011;50449;51.528;5.076;2023-10-09T14:48:52;251.40;;;240.93;;
64157;SDS011;50449;51.528;5.076;2023-10-09T14:51:19;249.23;;;238.60;;
64157;SDS011;50449;51.528;5.076;2023-10-09T14:53:52;249.80;;;238.40;;
64157;SDS011;50449;51.528;5.076;2023-10-09T14:56:26;247.13;;;237.15;;
64157;SDS011;50449;51.528;5.076;2023-10-09T14:58:56;249.25;;;239.23;;
64157;SDS011;50449;51.528;5.076;2023-10-09T15:01:26;249.18;;;238.88;;
64157;SDS011;50449;51.528;5.076;2023-10-09T15:03:56;252.95;;;242.32;;
64157;SDS011;50449;51.528;5.076;2023-10-09T15:06:29;252.65;;;241.88;;
64157;SDS011;50449;51.528;5.076;2023-10-09T15:08:58;249.07;;;238.85;;
64157;SDS011;50449;51.528;5.076;2023-10-09T15:11:33;253.17;;;242.87;;
64157;SDS011;50449;51.528;5.076;2023-10-09T15:13:58;248.70;;;238.68;;
64157;SDS011;50449;51.528;5.076;2023-10-09T15:16:24;254.57;;;244.27;;
64157;SDS011;50449;51.528;5.076;2023-10-09T15:18:55;247.20;;;236.10;;
64157;SDS011;50449;51.528;5.076;2023-10-09T15:21:22;247.98;;;237.38;;